RYR54WV LIRI-LOWW
Flight info
| Callsign | RYR54WV |
|---|---|
| Flight time | N/A |
| Altitude | 36000 |
| Route | SOR DCT PES DCT GEMKA DCT LAPNA LAPNA2W |
| Aircraft | A320/M-SDE3FGHIRWY/LB1 |
Departure
| Time | 2026-04-24 16:22 |
|---|---|
| Airport | Salerno Costa d'Amalfi Airport (LIRI) |
Arrival
| Time | N/A |
|---|---|
| Airport | Vienna International Airport (LOWW) |
| Time | Latitude | Longitude | Altitude | Speed | Heading |
|---|---|---|---|---|---|
| 2026-04-24 16:05 | 40.62064 | 14.92044 | 84 ft | 0 kts | 141° |
| 2026-04-24 16:15 | 40.62088 | 14.92004 | 88 ft | 3 kts | 94° |
| 2026-04-24 16:16 | 40.62081 | 14.91973 | 89 ft | 1 kts | 54° |
| 2026-04-24 16:16 | 40.62081 | 14.91972 | 89 ft | 0 kts | 54° |
| 2026-04-24 16:18 | 40.62088 | 14.91985 | 89 ft | 4 kts | 54° |
| 2026-04-24 16:19 | 40.62162 | 14.92111 | 84 ft | 10 kts | 52° |
| 2026-04-24 16:19 | 40.62213 | 14.92102 | 86 ft | 8 kts | 323° |
| 2026-04-24 16:20 | 40.62189 | 14.91947 | 84 ft | 10 kts | 250° |
| 2026-04-24 16:20 | 40.62287 | 14.91802 | 86 ft | 10 kts | 304° |
| 2026-04-24 16:20 | 40.62270 | 14.91717 | 87 ft | 11 kts | 232° |
| 2026-04-24 16:21 | 40.62255 | 14.91691 | 88 ft | 22 kts | 232° |
| 2026-04-24 16:21 | 40.61986 | 14.91238 | 87 ft | 99 kts | 232° |
| 2026-04-24 16:21 | 40.61445 | 14.90328 | 229 ft | 139 kts | 232° |
| 2026-04-24 16:22 | 40.60887 | 14.89373 | 879 ft | 129 kts | 232° |
| 2026-04-24 16:22 | 40.59658 | 14.87441 | 1690 ft | 154 kts | 234° |
| 2026-04-24 16:22 | 40.58920 | 14.86279 | 1958 ft | 177 kts | 235° |
| 2026-04-24 16:23 | 40.58067 | 14.84926 | 2118 ft | 210 kts | 233° |
| 2026-04-24 16:23 | 40.57077 | 14.83365 | 2541 ft | 234 kts | 234° |
| 2026-04-24 16:23 | 40.56172 | 14.81486 | 3008 ft | 254 kts | 255° |
| 2026-04-24 16:24 | 40.56888 | 14.77038 | 4505 ft | 266 kts | 315° |
| 2026-04-24 16:24 | 40.58425 | 14.75756 | 4888 ft | 263 kts | 347° |
| 2026-04-24 16:24 | 40.60212 | 14.75273 | 5808 ft | 263 kts | 351° |
| 2026-04-24 16:24 | 40.62008 | 14.74768 | 6796 ft | 265 kts | 349° |
| 2026-04-24 16:25 | 40.63815 | 14.74226 | 7724 ft | 268 kts | 349° |
| 2026-04-24 16:25 | 40.65647 | 14.73667 | 8623 ft | 272 kts | 349° |
| 2026-04-24 16:25 | 40.67506 | 14.73098 | 9513 ft | 277 kts | 349° |
| 2026-04-24 16:26 | 40.71414 | 14.71910 | 10575 ft | 309 kts | 348° |
| 2026-04-24 16:26 | 40.73575 | 14.71255 | 11019 ft | 325 kts | 348° |
| 2026-04-24 16:26 | 40.78047 | 14.69894 | 12556 ft | 333 kts | 348° |
| 2026-04-24 16:27 | 40.80312 | 14.69205 | 13391 ft | 336 kts | 347° |
| 2026-04-24 16:27 | 40.82608 | 14.68507 | 14085 ft | 340 kts | 347° |
| 2026-04-24 16:27 | 40.84928 | 14.67805 | 14703 ft | 344 kts | 347° |
| 2026-04-24 16:27 | 40.87277 | 14.67092 | 15394 ft | 348 kts | 348° |
| 2026-04-24 16:28 | 40.89644 | 14.66370 | 16056 ft | 352 kts | 348° |
| 2026-04-24 16:28 | 40.92043 | 14.65636 | 16706 ft | 356 kts | 348° |
| 2026-04-24 16:28 | 40.96922 | 14.64149 | 18015 ft | 364 kts | 348° |
| 2026-04-24 16:29 | 40.99402 | 14.63397 | 18624 ft | 367 kts | 348° |
| 2026-04-24 16:29 | 41.01907 | 14.62638 | 19196 ft | 371 kts | 348° |
| 2026-04-24 16:29 | 41.06982 | 14.61092 | 20362 ft | 377 kts | 348° |
| 2026-04-24 16:30 | 41.12146 | 14.59507 | 21511 ft | 384 kts | 349° |
| 2026-04-24 16:30 | 41.14761 | 14.58707 | 22109 ft | 387 kts | 349° |
| 2026-04-24 16:30 | 41.17393 | 14.57902 | 22678 ft | 390 kts | 349° |
| 2026-04-24 16:31 | 41.20048 | 14.57086 | 23238 ft | 394 kts | 349° |
| 2026-04-24 16:31 | 41.22728 | 14.56261 | 23755 ft | 397 kts | 349° |
| 2026-04-24 16:31 | 41.25429 | 14.55432 | 24200 ft | 400 kts | 349° |
| 2026-04-24 16:31 | 41.28149 | 14.54600 | 24624 ft | 403 kts | 349° |
| 2026-04-24 16:32 | 41.29962 | 14.54045 | 24885 ft | 405 kts | 349° |
| 2026-04-24 16:32 | 41.33658 | 14.52906 | 25438 ft | 409 kts | 349° |
| 2026-04-24 16:32 | 41.36440 | 14.52046 | 25845 ft | 412 kts | 349° |
| 2026-04-24 16:32 | 41.39240 | 14.51180 | 26219 ft | 415 kts | 349° |
| 2026-04-24 16:33 | 41.42059 | 14.50308 | 26633 ft | 417 kts | 349° |
| 2026-04-24 16:33 | 41.44892 | 14.49435 | 27037 ft | 419 kts | 349° |
| 2026-04-24 16:33 | 41.47742 | 14.48555 | 27437 ft | 422 kts | 349° |
| 2026-04-24 16:33 | 41.50616 | 14.47665 | 27775 ft | 425 kts | 350° |
| 2026-04-24 16:34 | 41.53467 | 14.46781 | 28121 ft | 428 kts | 350° |
| 2026-04-24 16:34 | 41.56381 | 14.45877 | 28484 ft | 431 kts | 350° |
| 2026-04-24 16:34 | 41.59310 | 14.44967 | 28842 ft | 434 kts | 350° |
| 2026-04-24 16:34 | 41.62256 | 14.44050 | 29201 ft | 436 kts | 350° |
| 2026-04-24 16:35 | 41.65216 | 14.43127 | 29553 ft | 438 kts | 350° |
| 2026-04-24 16:35 | 41.68194 | 14.42201 | 29891 ft | 441 kts | 350° |
| 2026-04-24 16:35 | 41.71189 | 14.41272 | 30186 ft | 443 kts | 351° |
| 2026-04-24 16:35 | 41.74208 | 14.40333 | 30395 ft | 447 kts | 350° |
| 2026-04-24 16:36 | 41.77249 | 14.39382 | 30658 ft | 450 kts | 350° |
| 2026-04-24 16:36 | 41.80300 | 14.38424 | 30913 ft | 451 kts | 350° |
| 2026-04-24 16:36 | 41.83361 | 14.37460 | 31168 ft | 453 kts | 350° |
| 2026-04-24 16:36 | 41.86436 | 14.36496 | 31401 ft | 454 kts | 350° |
| 2026-04-24 16:37 | 41.89514 | 14.35533 | 31710 ft | 454 kts | 350° |
| 2026-04-24 16:37 | 41.92584 | 14.34572 | 32073 ft | 452 kts | 350° |
| 2026-04-24 16:37 | 41.94653 | 14.33922 | 32315 ft | 451 kts | 350° |
| 2026-04-24 16:37 | 41.98698 | 14.32649 | 32785 ft | 450 kts | 350° |
| 2026-04-24 16:38 | 42.01740 | 14.31690 | 33122 ft | 449 kts | 350° |
| 2026-04-24 16:38 | 42.04776 | 14.30733 | 33467 ft | 448 kts | 350° |
| 2026-04-24 16:38 | 42.07805 | 14.29780 | 33809 ft | 447 kts | 350° |
| 2026-04-24 16:38 | 42.09806 | 14.29149 | 34040 ft | 446 kts | 350° |
| 2026-04-24 16:39 | 42.12824 | 14.28197 | 34337 ft | 445 kts | 350° |
| 2026-04-24 16:39 | 42.15838 | 14.27245 | 34629 ft | 444 kts | 350° |
| 2026-04-24 16:39 | 42.18846 | 14.26292 | 34931 ft | 443 kts | 350° |
| 2026-04-24 16:39 | 42.21844 | 14.25340 | 35211 ft | 443 kts | 350° |
| 2026-04-24 16:40 | 42.24839 | 14.24387 | 35487 ft | 442 kts | 350° |
| 2026-04-24 16:40 | 42.27827 | 14.23434 | 35757 ft | 441 kts | 350° |
| 2026-04-24 16:40 | 42.30809 | 14.22483 | 35999 ft | 441 kts | 350° |
| 2026-04-24 16:40 | 42.33793 | 14.21534 | 36066 ft | 439 kts | 350° |
| 2026-04-24 16:41 | 42.39709 | 14.19654 | 36083 ft | 436 kts | 350° |
| 2026-04-24 16:41 | 42.45658 | 14.18425 | 36087 ft | 430 kts | 3° |
| 2026-04-24 16:42 | 42.51632 | 14.18461 | 36086 ft | 429 kts | 3° |
| 2026-04-24 16:42 | 42.57607 | 14.18500 | 36086 ft | 429 kts | 4° |
| 2026-04-24 16:43 | 42.63579 | 14.18545 | 36083 ft | 429 kts | 4° |
| 2026-04-24 16:43 | 42.69549 | 14.18583 | 36096 ft | 429 kts | 3° |
| 2026-04-24 16:44 | 42.75521 | 14.18616 | 36080 ft | 429 kts | 4° |
| 2026-04-24 16:44 | 42.81489 | 14.18659 | 36087 ft | 428 kts | 4° |
| 2026-04-24 16:45 | 42.87407 | 14.18696 | 36096 ft | 428 kts | 3° |
| 2026-04-24 16:45 | 42.93358 | 14.18728 | 36092 ft | 427 kts | 4° |
| 2026-04-24 16:46 | 42.99300 | 14.18769 | 36098 ft | 426 kts | 4° |
| 2026-04-24 16:46 | 43.05226 | 14.18802 | 36097 ft | 426 kts | 4° |
| 2026-04-24 16:47 | 43.11146 | 14.18837 | 36086 ft | 425 kts | 4° |
| 2026-04-24 16:47 | 43.17056 | 14.18878 | 36080 ft | 424 kts | 4° |
| 2026-04-24 16:48 | 43.22949 | 14.18919 | 36085 ft | 423 kts | 4° |
| 2026-04-24 16:48 | 43.28837 | 14.18960 | 36083 ft | 423 kts | 4° |
| 2026-04-24 16:49 | 43.34713 | 14.19000 | 36068 ft | 422 kts | 4° |
| 2026-04-24 16:49 | 43.40587 | 14.19034 | 36071 ft | 422 kts | 4° |
| 2026-04-24 16:50 | 43.46456 | 14.19070 | 36077 ft | 422 kts | 4° |
| 2026-04-24 16:50 | 43.52328 | 14.19107 | 36080 ft | 422 kts | 4° |
| 2026-04-24 16:51 | 43.58197 | 14.19148 | 36063 ft | 422 kts | 4° |
| 2026-04-24 16:51 | 43.64063 | 14.19195 | 36068 ft | 422 kts | 4° |
| 2026-04-24 16:52 | 43.69929 | 14.19234 | 36070 ft | 422 kts | 4° |
| 2026-04-24 16:52 | 43.75798 | 14.19266 | 36058 ft | 422 kts | 4° |
| 2026-04-24 16:53 | 43.81628 | 14.19295 | 36067 ft | 422 kts | 4° |
| 2026-04-24 16:53 | 43.87497 | 14.19337 | 36073 ft | 422 kts | 4° |
| 2026-04-24 16:54 | 43.93366 | 14.19384 | 36069 ft | 422 kts | 4° |
| 2026-04-24 16:54 | 43.99236 | 14.19427 | 36075 ft | 422 kts | 4° |
| 2026-04-24 16:55 | 44.05110 | 14.19463 | 36079 ft | 422 kts | 4° |
| 2026-04-24 16:55 | 44.10982 | 14.19498 | 36081 ft | 422 kts | 4° |
| 2026-04-24 16:56 | 44.16856 | 14.19531 | 36058 ft | 422 kts | 4° |
| 2026-04-24 16:56 | 44.22733 | 14.19571 | 36066 ft | 422 kts | 4° |
| 2026-04-24 16:57 | 44.28608 | 14.19608 | 36072 ft | 422 kts | 4° |
| 2026-04-24 16:57 | 44.34483 | 14.19646 | 36063 ft | 422 kts | 4° |
| 2026-04-24 16:58 | 44.40362 | 14.19692 | 36056 ft | 422 kts | 4° |
| 2026-04-24 16:58 | 44.46045 | 14.21055 | 36069 ft | 413 kts | 25° |
| 2026-04-24 16:59 | 44.51323 | 14.24240 | 36053 ft | 413 kts | 25° |
| 2026-04-24 17:00 | 44.59236 | 14.29078 | 36052 ft | 414 kts | 25° |
| 2026-04-24 17:00 | 44.67176 | 14.33927 | 36068 ft | 415 kts | 25° |
| 2026-04-24 17:01 | 44.75123 | 14.38786 | 36071 ft | 415 kts | 25° |
| 2026-04-24 17:02 | 44.83071 | 14.43668 | 36070 ft | 415 kts | 25° |
| 2026-04-24 17:02 | 44.88324 | 14.46908 | 36069 ft | 415 kts | 25° |
| 2026-04-24 17:03 | 44.96248 | 14.51790 | 36072 ft | 414 kts | 25° |
| 2026-04-24 17:04 | 45.01523 | 14.55054 | 36062 ft | 414 kts | 25° |
| 2026-04-24 17:04 | 45.09430 | 14.59963 | 36063 ft | 413 kts | 25° |
| 2026-04-24 17:05 | 45.14693 | 14.63229 | 36063 ft | 413 kts | 25° |
| 2026-04-24 17:06 | 45.22579 | 14.68140 | 36054 ft | 413 kts | 25° |
| 2026-04-24 17:06 | 45.30465 | 14.73077 | 36049 ft | 413 kts | 25° |
| 2026-04-24 17:07 | 45.35720 | 14.76373 | 36046 ft | 413 kts | 25° |
| 2026-04-24 17:08 | 45.46236 | 14.82978 | 36046 ft | 413 kts | 24° |
| 2026-04-24 17:08 | 45.51488 | 14.86290 | 36039 ft | 413 kts | 25° |
| 2026-04-24 17:09 | 45.61978 | 14.92919 | 36037 ft | 412 kts | 24° |
| 2026-04-24 17:10 | 45.72422 | 14.99566 | 36031 ft | 410 kts | 24° |
| 2026-04-24 17:12 | 45.93261 | 15.12873 | 36006 ft | 409 kts | 24° |